Time;durP1;ratioP1;P1;durP2;ratioP2;P2;SDS_P1;SDS_P2;PMS_P1;PMS_P2;Temp;Humidity;BMP_temperature;BMP_pressure;BME280_temperature;BME280_humidity;BME280_pressure;Samples;Min_cycle;Max_cycle;Signal;HPM_P1;HPM_P2
2022/12/18 00:02:26;;;;;;;0.70;0.70;;;;;;;;;;4896404;29;20226;-80
2022/12/18 00:04:52;;;;;;;0.70;0.70;;;;;;;;;;4889310;29;20234;-79
2022/12/18 00:07:19;;;;;;;0.63;0.60;;;;;;;;;;4892952;29;20628;-78
2022/12/18 00:09:46;;;;;;;0.70;0.68;;;;;;;;;;4893409;29;20303;-78
2022/12/18 00:12:13;;;;;;;0.80;0.80;;;;;;;;;;4893851;29;20212;-79
2022/12/18 00:14:45;;;;;;;0.60;0.60;;;;;;;;;;4894591;29;20210;-79
2022/12/18 00:17:18;;;;;;;0.85;0.85;;;;;;;;;;4869356;29;20216;-81
2022/12/18 00:19:44;;;;;;;0.90;0.90;;;;;;;;;;4890280;29;20677;-81
2022/12/18 00:22:11;;;;;;;0.70;0.70;;;;;;;;;;4890079;29;21054;-80
2022/12/18 00:24:38;;;;;;;0.80;0.80;;;;;;;;;;4878460;29;20270;-80
2022/12/18 00:27:06;;;;;;;0.75;0.75;;;;;;;;;;4873724;29;20334;-79
2022/12/18 00:29:33;;;;;;;1.00;1.00;;;;;;;;;;4878600;29;20204;-78
2022/12/18 00:32:01;;;;;;;0.70;0.70;;;;;;;;;;4892055;29;20238;-78
2022/12/18 00:34:28;;;;;;;0.85;0.85;;;;;;;;;;4882391;29;20199;-79
2022/12/18 00:36:55;;;;;;;0.80;0.80;;;;;;;;;;4886603;29;20246;-78
2022/12/18 00:39:22;;;;;;;0.73;0.73;;;;;;;;;;4893536;29;20196;-81
2022/12/18 00:44:34;;;;;;;0.80;0.80;;;;;;;;;;4890224;29;20294;-82
2022/12/18 00:47:04;;;;;;;0.88;0.88;;;;;;;;;;4896157;29;20319;-81
2022/12/18 00:49:31;;;;;;;0.70;0.68;;;;;;;;;;4877659;29;20208;-79
2022/12/18 00:51:57;;;;;;;0.70;0.70;;;;;;;;;;4893229;29;20210;-81
2022/12/18 00:54:24;;;;;;;0.80;0.80;;;;;;;;;;4889813;29;20208;-80
2022/12/18 00:56:51;;;;;;;0.90;0.90;;;;;;;;;;4893511;29;20204;-81
2022/12/18 00:59:18;;;;;;;0.70;0.65;;;;;;;;;;4897182;29;20203;-81
2022/12/18 01:01:44;;;;;;;0.80;0.80;;;;;;;;;;4897673;29;20226;-81
2022/12/18 01:04:13;;;;;;;0.70;0.70;;;;;;;;;;4905311;29;20260;-80
2022/12/18 01:06:40;;;;;;;5.18;4.70;;;;;;;;;;4894048;29;20573;-81
2022/12/18 01:09:06;;;;;;;0.70;0.70;;;;;;;;;;4892793;29;20271;-81
2022/12/18 01:11:36;;;;;;;11.93;4.18;;;;;;;;;;4896146;29;20215;-80
2022/12/18 01:14:03;;;;;;;0.77;0.77;;;;;;;;;;4896858;29;20297;-79
2022/12/18 01:16:30;;;;;;;0.70;0.70;;;;;;;;;;4907924;29;20293;-80
2022/12/18 01:19:00;;;;;;;0.70;0.70;;;;;;;;;;4896780;29;20227;-80
2022/12/18 01:21:28;;;;;;;0.80;0.80;;;;;;;;;;4898273;29;20196;-79
2022/12/18 01:23:56;;;;;;;0.85;0.85;;;;;;;;;;4896895;29;20199;-79
2022/12/18 01:26:23;;;;;;;0.90;0.90;;;;;;;;;;4901209;29;20224;-78
2022/12/18 01:28:51;;;;;;;0.80;0.80;;;;;;;;;;4896921;29;20218;-76
2022/12/18 01:31:20;;;;;;;0.90;0.90;;;;;;;;;;4897124;29;20668;-78
2022/12/18 01:33:51;;;;;;;0.80;0.80;;;;;;;;;;4894183;29;20235;-77
2022/12/18 01:36:19;;;;;;;1.50;1.40;;;;;;;;;;4898835;29;20207;-77
2022/12/18 01:38:47;;;;;;;0.73;0.73;;;;;;;;;;4884780;29;20711;-79
2022/12/18 01:41:14;;;;;;;0.82;0.82;;;;;;;;;;4898054;29;20202;-78
2022/12/18 01:43:44;;;;;;;0.80;0.80;;;;;;;;;;4897937;29;20207;-78
2022/12/18 01:46:12;;;;;;;0.90;0.90;;;;;;;;;;4890133;29;20208;-79
2022/12/18 01:48:40;;;;;;;1.00;1.00;;;;;;;;;;4893403;29;20229;-80
2022/12/18 01:51:09;;;;;;;0.70;0.70;;;;;;;;;;4895809;29;20263;-77
2022/12/18 01:53:36;;;;;;;0.73;0.73;;;;;;;;;;4892427;29;20203;-79
2022/12/18 01:56:06;;;;;;;1.00;1.00;;;;;;;;;;4891714;29;20209;-79
2022/12/18 01:58:36;;;;;;;0.70;0.70;;;;;;;;;;4895570;29;20224;-80
2022/12/18 02:01:04;;;;;;;0.60;0.60;;;;;;;;;;4906917;29;20207;-79
2022/12/18 02:03:31;;;;;;;0.70;0.70;;;;;;;;;;4887608;29;20223;-79
2022/12/18 02:06:05;;;;;;;0.70;0.70;;;;;;;;;;4896839;29;20191;-78
2022/12/18 02:08:40;;;;;;;0.80;0.80;;;;;;;;;;4896690;29;20306;-79
2022/12/18 02:11:13;;;;;;;0.82;0.82;;;;;;;;;;4906475;29;20214;-78
2022/12/18 02:13:43;;;;;;;0.70;0.70;;;;;;;;;;4897389;29;20254;-78
2022/12/18 02:16:17;;;;;;;0.70;0.70;;;;;;;;;;4892173;29;20294;-76
2022/12/18 02:18:47;;;;;;;0.60;0.60;;;;;;;;;;4897713;29;20747;-77
2022/12/18 02:21:25;;;;;;;0.70;0.70;;;;;;;;;;4895088;29;20199;-77
2022/12/18 02:23:56;;;;;;;0.70;0.70;;;;;;;;;;4890535;29;20203;-77
2022/12/18 02:26:27;;;;;;;0.80;0.80;;;;;;;;;;4901867;29;20659;-77
2022/12/18 02:28:56;;;;;;;0.60;0.60;;;;;;;;;;4901699;29;20260;-79
2022/12/18 02:31:27;;;;;;;1.60;1.50;;;;;;;;;;4895455;29;20574;-79
2022/12/18 02:33:58;;;;;;;0.60;0.60;;;;;;;;;;4896720;29;20348;-78
2022/12/18 02:36:27;;;;;;;0.80;0.80;;;;;;;;;;4906016;29;20267;-78
2022/12/18 02:38:56;;;;;;;0.70;0.70;;;;;;;;;;4897340;29;20602;-79
2022/12/18 02:41:23;;;;;;;0.80;0.80;;;;;;;;;;4882823;29;20199;-76
2022/12/18 02:43:55;;;;;;;0.70;0.70;;;;;;;;;;4878718;29;20689;-80
2022/12/18 02:46:29;;;;;;;0.80;0.80;;;;;;;;;;4890591;29;20246;-78
2022/12/18 02:49:01;;;;;;;0.90;0.90;;;;;;;;;;4895871;29;20230;-79
2022/12/18 02:51:30;;;;;;;0.75;0.75;;;;;;;;;;4887529;29;20219;-76
2022/12/18 02:54:02;;;;;;;0.75;0.75;;;;;;;;;;4889139;29;20257;-78
2022/12/18 02:56:33;;;;;;;0.90;0.90;;;;;;;;;;4889003;29;20222;-80
2022/12/18 02:59:05;;;;;;;0.70;0.70;;;;;;;;;;4886460;29;20540;-79
2022/12/18 03:01:42;;;;;;;0.80;0.80;;;;;;;;;;4890444;29;20574;-79
2022/12/18 03:04:13;;;;;;;0.80;0.80;;;;;;;;;;4895815;29;20223;-79
2022/12/18 03:06:42;;;;;;;0.88;0.88;;;;;;;;;;4891796;29;20223;-78
2022/12/18 03:09:12;;;;;;;0.88;0.88;;;;;;;;;;4896314;29;20203;-77
2022/12/18 03:14:33;;;;;;;0.70;0.70;;;;;;;;;;4885956;29;20276;-77
2022/12/18 03:17:02;;;;;;;0.90;0.90;;;;;;;;;;4894901;29;20668;-79
2022/12/18 03:19:31;;;;;;;0.70;0.60;;;;;;;;;;4901656;29;20264;-77
2022/12/18 03:22:02;;;;;;;0.70;0.70;;;;;;;;;;4894813;29;20242;-77
2022/12/18 03:24:39;;;;;;;0.70;0.70;;;;;;;;;;4887782;29;20293;-77
2022/12/18 03:27:10;;;;;;;0.70;0.70;;;;;;;;;;4895302;29;20235;-77
2022/12/18 03:29:41;;;;;;;0.90;0.90;;;;;;;;;;4871390;29;20732;-77
2022/12/18 03:32:16;;;;;;;0.70;0.65;;;;;;;;;;4892919;29;20203;-76
2022/12/18 03:34:46;;;;;;;0.98;0.98;;;;;;;;;;4893579;29;20207;-76
2022/12/18 03:37:18;;;;;;;0.85;0.85;;;;;;;;;;4887505;29;20199;-77
2022/12/18 03:39:46;;;;;;;0.75;0.75;;;;;;;;;;4886776;29;20603;-76
2022/12/18 03:42:22;;;;;;;0.70;0.70;;;;;;;;;;4890229;29;20198;-75
2022/12/18 03:44:57;;;;;;;0.70;0.70;;;;;;;;;;4886122;29;20677;-77
2022/12/18 03:47:27;;;;;;;1.02;1.02;;;;;;;;;;4880175;29;20227;-76
2022/12/18 03:50:03;;;;;;;0.70;0.70;;;;;;;;;;4869966;29;20212;-76
2022/12/18 03:52:42;;;;;;;0.80;0.80;;;;;;;;;;4891890;29;20691;-77
2022/12/18 03:55:10;;;;;;;0.70;0.70;;;;;;;;;;4877097;29;20664;-77
2022/12/18 03:57:39;;;;;;;0.70;0.70;;;;;;;;;;4893667;29;20214;-76
2022/12/18 04:00:09;;;;;;;0.75;0.75;;;;;;;;;;4890585;29;20214;-77
2022/12/18 04:02:55;;;;;;;0.60;0.60;;;;;;;;;;4877814;29;20231;-78
2022/12/18 04:05:33;;;;;;;0.90;0.90;;;;;;;;;;4898671;29;20209;-77
2022/12/18 04:08:01;;;;;;;0.70;0.70;;;;;;;;;;4885147;29;20219;-77
2022/12/18 04:10:30;;;;;;;0.80;0.80;;;;;;;;;;4894581;29;20190;-78
2022/12/18 04:13:02;;;;;;;0.90;0.90;;;;;;;;;;4893546;29;20773;-77
2022/12/18 04:15:34;;;;;;;0.93;0.93;;;;;;;;;;4879685;29;20203;-79
2022/12/18 04:18:03;;;;;;;0.90;0.90;;;;;;;;;;4889645;29;20304;-79
2022/12/18 04:20:39;;;;;;;0.93;0.93;;;;;;;;;;4895882;29;20206;-78
2022/12/18 04:23:08;;;;;;;2.90;2.78;;;;;;;;;;4889726;29;20290;-77
2022/12/18 04:25:37;;;;;;;0.70;0.70;;;;;;;;;;4896741;29;20222;-77
2022/12/18 04:28:11;;;;;;;0.70;0.70;;;;;;;;;;4897186;29;20207;-77
2022/12/18 04:30:51;;;;;;;0.70;0.70;;;;;;;;;;4899850;29;20258;-75
2022/12/18 04:33:19;;;;;;;0.90;0.90;;;;;;;;;;4908681;29;20227;-77
2022/12/18 04:35:46;;;;;;;0.82;0.82;;;;;;;;;;4897421;29;20199;-78
2022/12/18 04:38:14;;;;;;;0.60;0.60;;;;;;;;;;4899828;29;20198;-78
2022/12/18 04:40:43;;;;;;;0.90;0.90;;;;;;;;;;4897012;29;20250;-77
2022/12/18 04:43:19;;;;;;;0.80;0.80;;;;;;;;;;4901617;29;20739;-77
2022/12/18 04:45:50;;;;;;;0.88;0.88;;;;;;;;;;4880872;29;20589;-77
2022/12/18 04:48:18;;;;;;;0.70;0.70;;;;;;;;;;4899339;29;20314;-78
2022/12/18 04:50:47;;;;;;;0.90;0.90;;;;;;;;;;4899893;29;20540;-75
2022/12/18 04:53:14;;;;;;;0.77;0.77;;;;;;;;;;4895579;29;20207;-76
2022/12/18 04:55:43;;;;;;;0.80;0.80;;;;;;;;;;4889787;29;20202;-76
2022/12/18 04:58:11;;;;;;;0.70;0.60;;;;;;;;;;4894131;29;20210;-77
2022/12/18 05:00:37;;;;;;;0.68;0.63;;;;;;;;;;4904590;29;20210;-79
2022/12/18 05:03:06;;;;;;;0.80;0.80;;;;;;;;;;4893573;29;20226;-77
2022/12/18 05:05:34;;;;;;;0.65;0.65;;;;;;;;;;4892673;29;20748;-77
2022/12/18 05:08:02;;;;;;;0.90;0.90;;;;;;;;;;4889401;29;20689;-76
2022/12/18 05:10:31;;;;;;;0.90;0.90;;;;;;;;;;4897488;29;20223;-75
2022/12/18 05:13:04;;;;;;;0.70;0.70;;;;;;;;;;4898103;29;20572;-78
2022/12/18 05:15:31;;;;;;;0.80;0.80;;;;;;;;;;4895656;29;20206;-76
2022/12/18 05:18:00;;;;;;;5.30;4.82;;;;;;;;;;4883341;29;20637;-76
2022/12/18 05:20:33;;;;;;;0.93;0.93;;;;;;;;;;4888032;29;20195;-75
2022/12/18 05:23:02;;;;;;;0.95;0.95;;;;;;;;;;4897484;29;20192;-76
2022/12/18 05:25:32;;;;;;;0.80;0.80;;;;;;;;;;4897372;29;20279;-76
2022/12/18 05:27:59;;;;;;;0.77;0.77;;;;;;;;;;4898790;29;20294;-77
2022/12/18 05:30:27;;;;;;;0.73;0.70;;;;;;;;;;4892233;29;20656;-78
2022/12/18 05:32:54;;;;;;;0.90;0.90;;;;;;;;;;4891138;29;20297;-76
2022/12/18 05:35:22;;;;;;;1.00;1.00;;;;;;;;;;4883124;29;20609;-77
2022/12/18 05:38:01;;;;;;;1.70;1.60;;;;;;;;;;4897501;29;20202;-78
2022/12/18 05:40:30;;;;;;;0.70;0.70;;;;;;;;;;4891907;29;20199;-77
2022/12/18 05:42:59;;;;;;;1.10;1.10;;;;;;;;;;4878808;29;20715;-77
2022/12/18 05:45:32;;;;;;;0.93;0.93;;;;;;;;;;4881775;29;20207;-77
2022/12/18 05:48:03;;;;;;;1.05;1.05;;;;;;;;;;4892964;29;20274;-77
2022/12/18 05:50:33;;;;;;;0.70;0.60;;;;;;;;;;4882165;29;20206;-78
2022/12/18 05:53:06;;;;;;;0.80;0.80;;;;;;;;;;4879713;29;20207;-77
2022/12/18 05:55:38;;;;;;;0.70;0.70;;;;;;;;;;4883867;29;20444;-77
2022/12/18 05:58:09;;;;;;;0.82;0.82;;;;;;;;;;4896027;29;20184;-77
2022/12/18 06:00:40;;;;;;;0.70;0.70;;;;;;;;;;4897668;29;20191;-79
2022/12/18 06:03:09;;;;;;;1.00;1.00;;;;;;;;;;4888128;29;20268;-76
2022/12/18 06:05:42;;;;;;;1.70;1.60;;;;;;;;;;4902595;29;20207;-76
2022/12/18 06:08:18;;;;;;;0.80;0.80;;;;;;;;;;4875405;29;20302;-76
2022/12/18 06:11:07;;;;;;;0.60;0.60;;;;;;;;;;4897393;29;20218;-77
2022/12/18 06:13:39;;;;;;;0.70;0.70;;;;;;;;;;4896404;29;20636;-77
2022/12/18 06:16:09;;;;;;;2.25;2.15;;;;;;;;;;4875367;29;20649;-76
2022/12/18 06:18:37;;;;;;;0.80;0.80;;;;;;;;;;4908940;29;20250;-76
2022/12/18 06:21:04;;;;;;;0.75;0.75;;;;;;;;;;4892211;29;20207;-76
2022/12/18 06:23:34;;;;;;;1.00;1.00;;;;;;;;;;4896573;29;20206;-76
2022/12/18 06:26:03;;;;;;;0.90;0.90;;;;;;;;;;4892765;29;20263;-76
2022/12/18 06:28:30;;;;;;;0.80;0.80;;;;;;;;;;4896226;29;20213;-76
2022/12/18 06:30:57;;;;;;;0.93;0.93;;;;;;;;;;4887850;29;20274;-76
2022/12/18 06:33:25;;;;;;;0.77;0.77;;;;;;;;;;4888499;29;20311;-76
2022/12/18 06:35:54;;;;;;;0.90;0.90;;;;;;;;;;4891550;29;20208;-77
2022/12/18 06:38:31;;;;;;;0.80;0.80;;;;;;;;;;4889646;29;20199;-78
2022/12/18 06:40:59;;;;;;;0.90;0.90;;;;;;;;;;4894368;29;20225;-79
2022/12/18 06:43:27;;;;;;;0.80;0.80;;;;;;;;;;4905886;29;20230;-77
2022/12/18 06:46:00;;;;;;;0.70;0.70;;;;;;;;;;4894296;29;20207;-78
2022/12/18 06:48:28;;;;;;;0.82;0.82;;;;;;;;;;4894948;29;20658;-78
2022/12/18 06:50:54;;;;;;;0.70;0.70;;;;;;;;;;4874430;29;20252;-78
2022/12/18 06:53:21;;;;;;;0.80;0.80;;;;;;;;;;4895732;29;20219;-75
2022/12/18 06:55:50;;;;;;;0.60;0.60;;;;;;;;;;4888358;29;20203;-77
2022/12/18 06:58:18;;;;;;;0.85;0.85;;;;;;;;;;4873177;29;20199;-75
2022/12/18 07:00:49;;;;;;;0.63;0.60;;;;;;;;;;4883997;29;20197;-76
2022/12/18 07:03:16;;;;;;;0.90;0.90;;;;;;;;;;4894686;29;20759;-77
2022/12/18 07:05:43;;;;;;;0.70;0.70;;;;;;;;;;4895514;29;20212;-75
2022/12/18 07:08:10;;;;;;;0.80;0.80;;;;;;;;;;4888346;29;20220;-77
2022/12/18 07:10:40;;;;;;;3.47;2.28;;;;;;;;;;4884628;29;20215;-77
2022/12/18 07:13:14;;;;;;;1.50;1.40;;;;;;;;;;4875292;29;20246;-76
2022/12/18 07:15:42;;;;;;;0.80;0.80;;;;;;;;;;4896460;29;20199;-77
2022/12/18 07:18:11;;;;;;;0.90;0.90;;;;;;;;;;4892498;29;20632;-77
2022/12/18 07:20:39;;;;;;;0.70;0.70;;;;;;;;;;4894967;29;20266;-78
2022/12/18 07:23:06;;;;;;;0.70;0.70;;;;;;;;;;4893012;29;20719;-77
2022/12/18 07:25:33;;;;;;;0.90;0.90;;;;;;;;;;4881173;29;20218;-77
2022/12/18 07:28:01;;;;;;;0.77;0.77;;;;;;;;;;4889996;29;20201;-76
2022/12/18 07:30:27;;;;;;;0.80;0.80;;;;;;;;;;4894798;29;20563;-76
2022/12/18 07:32:56;;;;;;;0.90;0.90;;;;;;;;;;4889689;29;20270;-77
2022/12/18 07:35:23;;;;;;;0.70;0.70;;;;;;;;;;4895281;29;20192;-77
2022/12/18 07:37:51;;;;;;;0.73;0.73;;;;;;;;;;4894518;29;20199;-77
2022/12/18 07:40:18;;;;;;;0.80;0.80;;;;;;;;;;4894178;29;20260;-78
2022/12/18 07:42:45;;;;;;;1.33;1.23;;;;;;;;;;4890669;29;20207;-77
2022/12/18 07:45:12;;;;;;;0.65;0.65;;;;;;;;;;4888445;29;20298;-76
2022/12/18 07:47:41;;;;;;;0.90;0.90;;;;;;;;;;4886884;29;20299;-75
2022/12/18 07:50:09;;;;;;;0.80;0.80;;;;;;;;;;4891776;29;20231;-76
2022/12/18 07:52:37;;;;;;;0.93;0.93;;;;;;;;;;4911065;29;20216;-76
2022/12/18 07:55:04;;;;;;;1.15;1.05;;;;;;;;;;4892308;29;20211;-77
2022/12/18 07:57:32;;;;;;;1.38;1.27;;;;;;;;;;4893958;29;20200;-77
2022/12/18 08:00:17;;;;;;;3.80;2.60;;;;;;;;;;4891952;29;20282;-76
2022/12/18 08:02:44;;;;;;;0.85;0.85;;;;;;;;;;4889114;29;20227;-77
2022/12/18 08:05:13;;;;;;;1.00;1.00;;;;;;;;;;4896059;29;20206;-76
2022/12/18 08:07:41;;;;;;;0.80;0.80;;;;;;;;;;4891633;29;20259;-77
2022/12/18 08:10:08;;;;;;;1.63;1.52;;;;;;;;;;4872779;29;20223;-76
2022/12/18 08:12:35;;;;;;;3.80;3.60;;;;;;;;;;4889249;29;20195;-77
2022/12/18 08:15:03;;;;;;;2.60;2.47;;;;;;;;;;4885122;29;20231;-76
2022/12/18 08:17:30;;;;;;;2.17;2.08;;;;;;;;;;4892290;29;20231;-78
2022/12/18 08:19:57;;;;;;;1.65;1.55;;;;;;;;;;4888617;29;20246;-76
2022/12/18 08:22:26;;;;;;;1.00;1.00;;;;;;;;;;4906241;29;20719;-75
2022/12/18 08:24:52;;;;;;;0.70;0.70;;;;;;;;;;4885971;29;20681;-74
2022/12/18 08:27:20;;;;;;;0.90;0.90;;;;;;;;;;4891791;29;20235;-75
2022/12/18 08:29:55;;;;;;;0.70;0.70;;;;;;;;;;4894928;29;20223;-75
2022/12/18 08:32:22;;;;;;;0.80;0.80;;;;;;;;;;4891933;29;20231;-74
2022/12/18 08:34:50;;;;;;;1.65;1.55;;;;;;;;;;4893950;29;20301;-75
2022/12/18 08:37:17;;;;;;;0.70;0.70;;;;;;;;;;4894214;29;20246;-78
2022/12/18 08:39:45;;;;;;;1.80;1.70;;;;;;;;;;4890532;29;20193;-76
2022/12/18 08:45:04;;;;;;;1.40;1.30;;;;;;;;;;4883300;29;20600;-75
2022/12/18 08:47:31;;;;;;;1.27;1.17;;;;;;;;;;4901069;29;20621;-75
2022/12/18 08:49:58;;;;;;;0.73;0.73;;;;;;;;;;4892962;29;20224;-74
2022/12/18 08:52:26;;;;;;;1.77;1.67;;;;;;;;;;4887902;29;20199;-77
2022/12/18 08:54:54;;;;;;;1.00;1.00;;;;;;;;;;4894308;29;20194;-76
2022/12/18 08:57:21;;;;;;;0.70;0.70;;;;;;;;;;4900791;29;20664;-77
2022/12/18 08:59:50;;;;;;;0.80;0.80;;;;;;;;;;4890136;29;20210;-76
2022/12/18 09:02:17;;;;;;;1.80;1.70;;;;;;;;;;4895206;29;20553;-77
2022/12/18 09:04:48;;;;;;;0.70;0.70;;;;;;;;;;4901144;29;20650;-75
2022/12/18 09:07:23;;;;;;;0.65;0.63;;;;;;;;;;4887001;29;20239;-77
2022/12/18 09:10:12;;;;;;;0.75;0.75;;;;;;;;;;4877493;29;20557;-76
2022/12/18 09:12:39;;;;;;;1.20;1.10;;;;;;;;;;4892696;29;20232;-77
2022/12/18 09:15:06;;;;;;;1.00;1.00;;;;;;;;;;4887353;29;20203;-76
2022/12/18 09:17:34;;;;;;;0.80;0.80;;;;;;;;;;4891257;29;20326;-77
2022/12/18 09:20:00;;;;;;;0.90;0.90;;;;;;;;;;4900314;29;20214;-76
2022/12/18 09:22:28;;;;;;;0.80;0.80;;;;;;;;;;4895293;29;20208;-75
2022/12/18 09:24:55;;;;;;;0.70;0.70;;;;;;;;;;4899991;29;20211;-76
2022/12/18 09:27:24;;;;;;;1.10;1.10;;;;;;;;;;4890139;29;20267;-76
2022/12/18 09:29:51;;;;;;;0.70;0.70;;;;;;;;;;4897586;29;20536;-75
2022/12/18 09:32:19;;;;;;;0.80;0.70;;;;;;;;;;4893044;29;20219;-77
2022/12/18 09:34:48;;;;;;;1.25;1.25;;;;;;;;;;4878131;29;20218;-77
2022/12/18 09:37:14;;;;;;;1.98;1.88;;;;;;;;;;4894342;29;20194;-77
2022/12/18 09:39:41;;;;;;;0.70;0.70;;;;;;;;;;4898984;29;20213;-76
2022/12/18 09:42:13;;;;;;;1.08;1.08;;;;;;;;;;4899166;29;20213;-75
2022/12/18 09:44:45;;;;;;;0.77;0.77;;;;;;;;;;4905322;29;20230;-76
2022/12/18 09:47:14;;;;;;;0.80;0.80;;;;;;;;;;4887478;29;20203;-76
2022/12/18 09:49:43;;;;;;;0.90;0.90;;;;;;;;;;4885907;29;20241;-77
2022/12/18 09:52:12;;;;;;;1.75;1.65;;;;;;;;;;4905240;29;20199;-77
2022/12/18 09:54:45;;;;;;;0.70;0.70;;;;;;;;;;4914311;29;20207;-77
2022/12/18 09:57:13;;;;;;;0.70;0.60;;;;;;;;;;4907053;29;20251;-76
2022/12/18 09:59:43;;;;;;;1.15;1.05;;;;;;;;;;4894789;29;20259;-77
2022/12/18 10:02:13;;;;;;;3.63;1.80;;;;;;;;;;4905074;29;20203;-78
2022/12/18 10:04:40;;;;;;;0.70;0.70;;;;;;;;;;4897066;29;21016;-78
2022/12/18 10:07:12;;;;;;;0.73;0.73;;;;;;;;;;4897826;29;20231;-77
2022/12/18 10:09:43;;;;;;;1.88;1.73;;;;;;;;;;4907962;29;20221;-77
2022/12/18 10:12:14;;;;;;;0.70;0.70;;;;;;;;;;4909604;29;20203;-79
2022/12/18 10:14:46;;;;;;;0.70;0.70;;;;;;;;;;4880684;29;20206;-78
2022/12/18 10:17:19;;;;;;;0.70;0.60;;;;;;;;;;4899557;29;20203;-77
2022/12/18 10:19:49;;;;;;;0.70;0.60;;;;;;;;;;4904935;29;20163;-77
2022/12/18 10:22:22;;;;;;;0.70;0.60;;;;;;;;;;4900427;29;20296;-76
2022/12/18 10:24:54;;;;;;;0.70;0.70;;;;;;;;;;4893313;29;20601;-78
2022/12/18 10:27:23;;;;;;;0.70;0.60;;;;;;;;;;4886723;29;20660;-76
2022/12/18 10:29:52;;;;;;;1.58;1.48;;;;;;;;;;4880758;29;20697;-76
2022/12/18 10:32:21;;;;;;;0.70;0.68;;;;;;;;;;4899342;29;20219;-76
2022/12/18 10:34:49;;;;;;;1.60;1.50;;;;;;;;;;4915553;29;20292;-76
2022/12/18 10:37:25;;;;;;;1.83;1.73;;;;;;;;;;4898138;29;20218;-78
2022/12/18 10:40:06;;;;;;;0.70;0.70;;;;;;;;;;4898244;29;20196;-76
2022/12/18 10:43:04;;;;;;;0.70;0.68;;;;;;;;;;4898408;29;20289;-78
2022/12/18 10:45:33;;;;;;;3.08;1.77;;;;;;;;;;4911582;29;20191;-76
2022/12/18 10:48:00;;;;;;;0.98;0.98;;;;;;;;;;4908275;29;20583;-76
2022/12/18 10:50:29;;;;;;;0.70;0.70;;;;;;;;;;4908350;29;20233;-75
2022/12/18 10:53:19;;;;;;;0.70;0.70;;;;;;;;;;4897616;29;20210;-76
2022/12/18 10:55:46;;;;;;;0.90;0.90;;;;;;;;;;4907744;29;20205;-77
2022/12/18 10:58:16;;;;;;;0.77;0.77;;;;;;;;;;4902421;29;20199;-76
2022/12/18 11:01:08;;;;;;;0.70;0.63;;;;;;;;;;4909094;29;20199;-76
2022/12/18 11:04:00;;;;;;;1.90;1.80;;;;;;;;;;4920809;29;20234;-75
2022/12/18 11:06:29;;;;;;;2.33;2.15;;;;;;;;;;4905489;29;20211;-75
2022/12/18 11:09:00;;;;;;;0.70;0.70;;;;;;;;;;4917104;29;20234;-75
2022/12/18 11:11:27;;;;;;;1.55;1.08;;;;;;;;;;4903520;29;21277;-75
2022/12/18 11:13:59;;;;;;;0.70;0.60;;;;;;;;;;4906779;29;20235;-75
2022/12/18 11:16:27;;;;;;;0.70;0.60;;;;;;;;;;4904482;29;20210;-76
2022/12/18 11:18:55;;;;;;;0.70;0.60;;;;;;;;;;4907313;29;20374;-75
2022/12/18 11:21:23;;;;;;;0.70;0.70;;;;;;;;;;4897295;29;20314;-75
2022/12/18 11:23:50;;;;;;;2.28;2.17;;;;;;;;;;4895181;29;20206;-74
2022/12/18 11:26:18;;;;;;;0.70;0.65;;;;;;;;;;4885480;29;20637;-76
2022/12/18 11:28:46;;;;;;;1.38;1.27;;;;;;;;;;4901738;29;20322;-76
2022/12/18 11:31:20;;;;;;;1.00;0.90;;;;;;;;;;4901480;29;20211;-76
2022/12/18 11:33:51;;;;;;;0.70;0.70;;;;;;;;;;4901786;29;20231;-74
2022/12/18 11:36:40;;;;;;;1.00;1.00;;;;;;;;;;4909878;29;20251;-76
2022/12/18 11:39:12;;;;;;;0.70;0.70;;;;;;;;;;4905988;29;20210;-76
2022/12/18 11:44:35;;;;;;;0.70;0.70;;;;;;;;;;4894996;29;20210;-75
2022/12/18 11:47:06;;;;;;;0.73;0.73;;;;;;;;;;4905320;29;20190;-76
2022/12/18 11:49:34;;;;;;;0.70;0.70;;;;;;;;;;4904251;29;20293;-75
2022/12/18 11:52:03;;;;;;;1.27;1.17;;;;;;;;;;4902982;29;20270;-76
2022/12/18 11:54:31;;;;;;;1.35;1.00;;;;;;;;;;4902140;29;20203;-75
2022/12/18 11:57:03;;;;;;;1.50;1.40;;;;;;;;;;4904920;29;20254;-76
2022/12/18 11:59:33;;;;;;;0.70;0.70;;;;;;;;;;4909446;29;20232;-75
2022/12/18 12:02:09;;;;;;;0.70;0.60;;;;;;;;;;4906571;29;20206;-75
2022/12/18 12:04:44;;;;;;;0.90;0.90;;;;;;;;;;4905210;29;20194;-76
2022/12/18 12:07:16;;;;;;;1.30;1.20;;;;;;;;;;4908751;29;20224;-75
2022/12/18 12:09:46;;;;;;;0.70;0.70;;;;;;;;;;4909278;29;20262;-75
2022/12/18 12:12:24;;;;;;;2.20;2.00;;;;;;;;;;4893725;29;20203;-75
2022/12/18 12:14:57;;;;;;;0.80;0.80;;;;;;;;;;4907208;29;20206;-73
2022/12/18 12:17:29;;;;;;;0.80;0.80;;;;;;;;;;4900638;29;20293;-76
2022/12/18 12:20:02;;;;;;;0.80;0.80;;;;;;;;;;4901730;29;20204;-75
2022/12/18 12:22:34;;;;;;;0.90;0.80;;;;;;;;;;4906190;29;20337;-75
2022/12/18 12:25:25;;;;;;;0.70;0.68;;;;;;;;;;4898439;29;20611;-75
2022/12/18 12:28:01;;;;;;;0.70;0.60;;;;;;;;;;4894101;29;20203;-75
2022/12/18 12:30:33;;;;;;;2.05;1.60;;;;;;;;;;4899697;29;20272;-75
2022/12/18 12:33:13;;;;;;;0.70;0.65;;;;;;;;;;4917500;29;20226;-75
2022/12/18 12:35:46;;;;;;;1.42;1.33;;;;;;;;;;4908304;29;20292;-74
2022/12/18 12:38:14;;;;;;;0.70;0.60;;;;;;;;;;4912277;29;20214;-75
2022/12/18 12:40:45;;;;;;;1.88;1.77;;;;;;;;;;4908432;29;20207;-77
2022/12/18 12:43:31;;;;;;;0.70;0.70;;;;;;;;;;4907986;29;20209;-78
2022/12/18 12:46:03;;;;;;;0.70;0.70;;;;;;;;;;4911989;29;20258;-75
2022/12/18 12:48:40;;;;;;;1.55;1.45;;;;;;;;;;4911086;29;20254;-76
2022/12/18 12:51:12;;;;;;;0.80;0.80;;;;;;;;;;4916416;29;20218;-76
2022/12/18 12:53:39;;;;;;;0.70;0.70;;;;;;;;;;4913810;29;20205;-76
2022/12/18 12:56:09;;;;;;;0.70;0.60;;;;;;;;;;4902529;29;20218;-73
2022/12/18 12:58:40;;;;;;;0.70;0.60;;;;;;;;;;4921079;29;20210;-75
2022/12/18 13:01:11;;;;;;;2.15;2.05;;;;;;;;;;4900859;29;20196;-75
2022/12/18 13:03:52;;;;;;;0.90;0.90;;;;;;;;;;4907883;29;20238;-76
2022/12/18 13:06:25;;;;;;;0.70;0.60;;;;;;;;;;4908075;29;20278;-75
2022/12/18 13:08:54;;;;;;;0.70;0.60;;;;;;;;;;4904823;29;20250;-76
2022/12/18 13:14:26;;;;;;;1.98;1.88;;;;;;;;;;4899308;29;20271;-76
2022/12/18 13:17:07;;;;;;;2.15;2.05;;;;;;;;;;4902777;29;20571;-76
2022/12/18 13:19:36;;;;;;;0.98;0.98;;;;;;;;;;4898002;29;20191;-75
2022/12/18 13:22:20;;;;;;;0.70;0.60;;;;;;;;;;4905004;29;20211;-78
2022/12/18 13:24:47;;;;;;;0.70;0.70;;;;;;;;;;4909115;29;20627;-75
2022/12/18 13:27:29;;;;;;;1.50;1.40;;;;;;;;;;4908418;29;20214;-75
2022/12/18 13:29:56;;;;;;;2.70;2.00;;;;;;;;;;4907281;29;20223;-75
2022/12/18 13:32:28;;;;;;;1.48;1.38;;;;;;;;;;4881179;29;20317;-76
2022/12/18 13:35:28;;;;;;;0.70;0.70;;;;;;;;;;4900723;29;20199;-75
2022/12/18 13:37:58;;;;;;;1.40;1.30;;;;;;;;;;4850353;29;20588;-76
2022/12/18 13:40:52;;;;;;;0.80;0.80;;;;;;;;;;4858803;29;20213;-77
2022/12/18 13:43:24;;;;;;;1.00;0.90;;;;;;;;;;4889622;29;20279;-74
2022/12/18 13:46:00;;;;;;;0.70;0.70;;;;;;;;;;4893956;29;20202;-75
2022/12/18 13:48:36;;;;;;;0.80;0.80;;;;;;;;;;4897671;29;20219;-76
2022/12/18 13:51:05;;;;;;;0.70;0.60;;;;;;;;;;4902262;29;20211;-76
2022/12/18 13:53:39;;;;;;;0.73;0.73;;;;;;;;;;4914680;29;20203;-75
2022/12/18 13:56:07;;;;;;;1.60;1.50;;;;;;;;;;4907127;29;20199;-76
2022/12/18 13:58:34;;;;;;;0.70;0.70;;;;;;;;;;4909378;29;20295;-75
2022/12/18 14:01:04;;;;;;;2.45;1.23;;;;;;;;;;4906450;29;20286;-75
2022/12/18 14:03:31;;;;;;;0.88;0.88;;;;;;;;;;4899171;29;20224;-74
2022/12/18 14:06:01;;;;;;;1.02;0.93;;;;;;;;;;4905201;29;20212;-75
2022/12/18 14:08:32;;;;;;;1.27;1.17;;;;;;;;;;4898810;29;20200;-75
2022/12/18 14:11:01;;;;;;;0.80;0.80;;;;;;;;;;4903886;29;20559;-75
2022/12/18 14:13:30;;;;;;;0.70;0.70;;;;;;;;;;4905604;29;20234;-75
2022/12/18 14:15:57;;;;;;;0.80;0.80;;;;;;;;;;4903525;29;20202;-75
2022/12/18 14:18:32;;;;;;;0.80;0.80;;;;;;;;;;4907854;29;20271;-75
2022/12/18 14:21:01;;;;;;;0.80;0.80;;;;;;;;;;4900106;29;20206;-75
2022/12/18 14:23:29;;;;;;;1.35;1.25;;;;;;;;;;4907533;29;20287;-76
2022/12/18 14:25:56;;;;;;;1.25;1.15;;;;;;;;;;4904422;29;20235;-75
2022/12/18 14:28:32;;;;;;;0.80;0.80;;;;;;;;;;4907369;29;20258;-77
2022/12/18 14:30:59;;;;;;;0.80;0.80;;;;;;;;;;4894413;29;20234;-75
2022/12/18 14:33:27;;;;;;;0.90;0.90;;;;;;;;;;4910093;29;20278;-74
2022/12/18 14:35:56;;;;;;;1.80;1.70;;;;;;;;;;4893530;29;20195;-76
2022/12/18 14:38:25;;;;;;;2.50;2.38;;;;;;;;;;4900046;29;20269;-75
2022/12/18 14:40:53;;;;;;;2.78;2.55;;;;;;;;;;4895460;29;20306;-74
2022/12/18 14:43:23;;;;;;;0.80;0.75;;;;;;;;;;4903101;29;20301;-74
2022/12/18 14:45:52;;;;;;;0.70;0.60;;;;;;;;;;4893442;29;20200;-75
2022/12/18 14:48:20;;;;;;;0.85;0.85;;;;;;;;;;4909498;29;20557;-77
2022/12/18 14:51:00;;;;;;;1.73;1.15;;;;;;;;;;4891427;29;21251;-75
2022/12/18 14:53:35;;;;;;;2.15;1.95;;;;;;;;;;4896230;29;20298;-76
2022/12/18 14:56:04;;;;;;;0.70;0.70;;;;;;;;;;4907664;29;20203;-73
2022/12/18 14:58:31;;;;;;;4.60;1.50;;;;;;;;;;4902592;29;20192;-75
2022/12/18 15:01:02;;;;;;;0.90;0.90;;;;;;;;;;4895757;29;20191;-72
2022/12/18 15:03:31;;;;;;;0.77;0.77;;;;;;;;;;4899240;29;20582;-76
2022/12/18 15:06:14;;;;;;;0.70;0.60;;;;;;;;;;4905553;29;20215;-74
2022/12/18 15:08:42;;;;;;;1.80;1.70;;;;;;;;;;4903604;29;20211;-75
2022/12/18 15:11:25;;;;;;;3.35;3.10;;;;;;;;;;4906866;29;20302;-75
2022/12/18 15:14:22;;;;;;;0.90;0.90;;;;;;;;;;4899900;29;20281;-74
2022/12/18 15:16:52;;;;;;;1.42;1.33;;;;;;;;;;4889063;29;20226;-75
2022/12/18 15:19:20;;;;;;;0.70;0.70;;;;;;;;;;4888218;29;20254;-75